Time;durP1;ratioP1;P1;durP2;ratioP2;P2;SDS_P1;SDS_P2;PMS_P1;PMS_P2;Temp;Humidity;BMP_temperature;BMP_pressure;BME280_temperature;BME280_humidity;BME280_pressure;Samples;Min_cycle;Max_cycle;Signal;HPM_P1;HPM_P2
2022/06/24 00:01:14;;;;;;;4.13;1.60;;;;;;;;;;5009148;28;20197;-86
2022/06/24 00:03:43;;;;;;;3.97;1.40;;;;;;;;;;5009360;28;20219;-87
2022/06/24 00:06:15;;;;;;;3.33;1.53;;;;;;;;;;5012183;28;20262;-86
2022/06/24 00:08:51;;;;;;;6.37;2.17;;;;;;;;;;5010922;28;20179;-87
2022/06/24 00:11:16;;;;;;;2.33;1.70;;;;;;;;;;5009292;28;20184;-87
2022/06/24 00:13:43;;;;;;;3.90;1.57;;;;;;;;;;5022324;28;20206;-86
2022/06/24 00:16:09;;;;;;;1.57;1.37;;;;;;;;;;5010140;28;20334;-82
2022/06/24 00:18:34;;;;;;;4.27;1.80;;;;;;;;;;5010540;28;20230;-87
2022/06/24 00:20:59;;;;;;;3.07;1.67;;;;;;;;;;5010205;28;20176;-84
2022/06/24 00:23:24;;;;;;;5.63;1.83;;;;;;;;;;5010323;28;20184;-88
2022/06/24 00:25:50;;;;;;;2.23;1.53;;;;;;;;;;5012459;28;20186;-86
2022/06/24 00:28:16;;;;;;;2.50;1.47;;;;;;;;;;5026251;28;20199;-85
2022/06/24 00:30:42;;;;;;;2.20;1.80;;;;;;;;;;5010221;28;20183;-84
2022/06/24 00:33:09;;;;;;;2.60;1.70;;;;;;;;;;5008845;28;20187;-86
2022/06/24 00:35:51;;;;;;;4.77;2.40;;;;;;;;;;5009849;28;20227;-85
2022/06/24 00:38:49;;;;;;;3.20;1.80;;;;;;;;;;5011336;28;20212;-87
2022/06/24 00:41:14;;;;;;;3.73;2.20;;;;;;;;;;4985825;28;20216;-86
2022/06/24 00:43:48;;;;;;;4.60;2.10;;;;;;;;;;5009912;28;20801;-86
2022/06/24 00:46:15;;;;;;;2.67;2.20;;;;;;;;;;5011084;28;20251;-86
2022/06/24 00:48:45;;;;;;;3.13;1.70;;;;;;;;;;5007483;28;20199;-87
2022/06/24 00:51:10;;;;;;;4.43;1.80;;;;;;;;;;5010519;28;20183;-86
2022/06/24 00:53:43;;;;;;;4.00;2.00;;;;;;;;;;5010024;28;20183;-84
2022/06/24 00:56:12;;;;;;;4.17;1.87;;;;;;;;;;5008979;28;20189;-85
2022/06/24 00:58:37;;;;;;;2.50;2.30;;;;;;;;;;5010265;28;20213;-87
2022/06/24 01:01:03;;;;;;;3.33;2.17;;;;;;;;;;5009040;28;20181;-85
2022/06/24 01:03:41;;;;;;;4.73;3.10;;;;;;;;;;5009302;28;20180;-85
2022/06/24 01:06:07;;;;;;;2.17;1.80;;;;;;;;;;5006072;28;20484;-86
2022/06/24 01:08:32;;;;;;;2.87;2.20;;;;;;;;;;5010625;28;20229;-85
2022/06/24 01:10:58;;;;;;;2.53;2.33;;;;;;;;;;5009727;28;20181;-87
2022/06/24 01:13:23;;;;;;;2.53;1.97;;;;;;;;;;5009313;28;20184;-87
2022/06/24 01:15:49;;;;;;;3.97;1.97;;;;;;;;;;5009071;28;20205;-85
2022/06/24 01:18:16;;;;;;;3.83;2.20;;;;;;;;;;5007823;28;20207;-87
2022/06/24 01:20:42;;;;;;;3.80;2.07;;;;;;;;;;5009679;28;20187;-86
2022/06/24 01:23:07;;;;;;;4.23;2.40;;;;;;;;;;5006835;28;20384;-87
2022/06/24 01:25:32;;;;;;;6.37;2.60;;;;;;;;;;5004143;28;20182;-86
2022/06/24 01:27:58;;;;;;;6.07;2.03;;;;;;;;;;5008873;28;20214;-87
2022/06/24 01:30:23;;;;;;;2.70;2.17;;;;;;;;;;5009191;28;20214;-85
2022/06/24 01:32:48;;;;;;;3.13;2.00;;;;;;;;;;5010843;28;20198;-87
2022/06/24 01:35:14;;;;;;;3.77;2.40;;;;;;;;;;5010666;28;20190;-86
2022/06/24 01:37:39;;;;;;;5.50;2.27;;;;;;;;;;5009209;28;20210;-86
2022/06/24 01:40:05;;;;;;;4.73;2.17;;;;;;;;;;5009605;28;20175;-86
2022/06/24 01:42:30;;;;;;;2.80;1.90;;;;;;;;;;5007105;28;20190;-86
2022/06/24 01:44:55;;;;;;;3.50;2.27;;;;;;;;;;5008754;28;20274;-86
2022/06/24 01:47:20;;;;;;;4.60;2.50;;;;;;;;;;5010302;28;20179;-87
2022/06/24 01:49:45;;;;;;;3.77;2.30;;;;;;;;;;5008468;28;20180;-86
2022/06/24 01:52:11;;;;;;;4.70;2.43;;;;;;;;;;5011095;28;20175;-87
2022/06/24 01:54:36;;;;;;;3.63;2.50;;;;;;;;;;5009150;28;20182;-87
2022/06/24 01:57:02;;;;;;;3.60;2.67;;;;;;;;;;5007455;28;20297;-87
2022/06/24 01:59:27;;;;;;;4.27;2.30;;;;;;;;;;5009611;28;20205;-88
2022/06/24 02:01:52;;;;;;;2.83;2.20;;;;;;;;;;5008381;28;20188;-86
2022/06/24 02:04:17;;;;;;;4.10;2.60;;;;;;;;;;5008117;28;20214;-86
2022/06/24 02:06:43;;;;;;;5.67;2.50;;;;;;;;;;5008875;28;20211;-87
2022/06/24 02:09:08;;;;;;;7.20;2.43;;;;;;;;;;5008451;28;20186;-87
2022/06/24 02:14:20;;;;;;;7.67;2.83;;;;;;;;;;5007512;28;20326;-86
2022/06/24 02:16:46;;;;;;;2.83;2.27;;;;;;;;;;5009832;28;20222;-87
2022/06/24 02:19:11;;;;;;;6.80;3.30;;;;;;;;;;5009154;28;20234;-86
2022/06/24 02:21:36;;;;;;;3.87;2.57;;;;;;;;;;5006091;28;20182;-86
2022/06/24 02:24:02;;;;;;;3.73;2.60;;;;;;;;;;5007905;28;20190;-85
2022/06/24 02:26:27;;;;;;;2.87;2.40;;;;;;;;;;5006052;28;20177;-86
2022/06/24 02:28:53;;;;;;;5.47;2.70;;;;;;;;;;5009520;28;20192;-85
2022/06/24 02:31:18;;;;;;;2.93;2.63;;;;;;;;;;5007904;28;20189;-85
2022/06/24 02:33:44;;;;;;;2.83;2.50;;;;;;;;;;5010138;28;20180;-89
2022/06/24 02:36:09;;;;;;;3.83;2.73;;;;;;;;;;5008899;28;20194;-86
2022/06/24 02:38:35;;;;;;;3.90;2.47;;;;;;;;;;5012139;28;20274;-85
2022/06/24 02:41:00;;;;;;;4.70;2.87;;;;;;;;;;5024570;28;20172;-87
2022/06/24 02:43:26;;;;;;;4.00;2.40;;;;;;;;;;5012923;28;20184;-86
2022/06/24 02:45:52;;;;;;;3.43;2.90;;;;;;;;;;5012171;28;20198;-86
2022/06/24 02:48:18;;;;;;;3.10;2.70;;;;;;;;;;5010074;28;20240;-86
2022/06/24 02:50:47;;;;;;;5.53;2.93;;;;;;;;;;5011639;28;20267;-86
2022/06/24 02:53:14;;;;;;;6.33;3.00;;;;;;;;;;5013363;28;20513;-86
2022/06/24 02:55:40;;;;;;;4.10;2.60;;;;;;;;;;5012690;28;20186;-87
2022/06/24 02:58:05;;;;;;;4.43;3.40;;;;;;;;;;5011624;28;20307;-84
2022/06/24 03:00:31;;;;;;;6.00;2.87;;;;;;;;;;5012240;28;20194;-86
2022/06/24 03:02:56;;;;;;;6.63;3.07;;;;;;;;;;5011681;28;20208;-87
2022/06/24 03:05:22;;;;;;;3.33;2.93;;;;;;;;;;5011055;28;20180;-86
2022/06/24 03:07:47;;;;;;;6.10;3.17;;;;;;;;;;5012473;28;20473;-88
2022/06/24 03:10:12;;;;;;;3.23;2.87;;;;;;;;;;5012678;28;20217;-88
2022/06/24 03:12:37;;;;;;;5.37;3.00;;;;;;;;;;5011902;28;20295;-87
2022/06/24 03:15:03;;;;;;;5.53;3.20;;;;;;;;;;5011841;28;20204;-87
2022/06/24 03:17:28;;;;;;;8.07;3.20;;;;;;;;;;5011772;28;20205;-88
2022/06/24 03:19:53;;;;;;;4.97;2.70;;;;;;;;;;5008253;28;20228;-86
2022/06/24 03:22:19;;;;;;;6.87;3.10;;;;;;;;;;5005979;28;20205;-88
2022/06/24 03:24:44;;;;;;;7.73;3.17;;;;;;;;;;5024674;28;21686;-86
2022/06/24 03:27:09;;;;;;;5.80;3.17;;;;;;;;;;5012070;28;20274;-87
2022/06/24 03:29:34;;;;;;;6.70;3.40;;;;;;;;;;5011891;28;20180;-89
2022/06/24 03:32:00;;;;;;;6.50;3.40;;;;;;;;;;5012933;28;20207;-88
2022/06/24 03:34:27;;;;;;;6.63;3.07;;;;;;;;;;5010480;28;20197;-86
2022/06/24 03:36:52;;;;;;;5.17;3.20;;;;;;;;;;5006271;28;20330;-87
2022/06/24 03:39:18;;;;;;;7.53;4.33;;;;;;;;;;5011361;28;20259;-86
2022/06/24 03:41:43;;;;;;;7.53;3.03;;;;;;;;;;5012679;28;20181;-88
2022/06/24 03:44:08;;;;;;;5.63;2.93;;;;;;;;;;5011847;28;20183;-87
2022/06/24 03:46:33;;;;;;;5.33;3.40;;;;;;;;;;5011160;28;20180;-87
2022/06/24 03:48:59;;;;;;;5.90;3.17;;;;;;;;;;5008272;28;20184;-88
2022/06/24 03:51:24;;;;;;;6.70;3.63;;;;;;;;;;5008842;28;20202;-85
2022/06/24 03:53:49;;;;;;;5.83;4.03;;;;;;;;;;5009999;28;20200;-87
2022/06/24 03:56:14;;;;;;;7.97;3.20;;;;;;;;;;5011017;28;20188;-87
2022/06/24 03:58:40;;;;;;;7.67;3.07;;;;;;;;;;5011191;28;20208;-86
2022/06/24 04:01:05;;;;;;;6.80;3.33;;;;;;;;;;5024405;28;20172;-88
2022/06/24 04:03:31;;;;;;;9.77;3.70;;;;;;;;;;5009221;28;20186;-85
2022/06/24 04:05:57;;;;;;;5.87;3.33;;;;;;;;;;5011495;28;20183;-87
2022/06/24 04:08:22;;;;;;;8.20;3.57;;;;;;;;;;5011923;28;20192;-87
2022/06/24 04:10:47;;;;;;;7.53;3.23;;;;;;;;;;5010658;28;20181;-88
2022/06/24 04:13:12;;;;;;;5.50;3.53;;;;;;;;;;5009967;28;20200;-86
2022/06/24 04:15:49;;;;;;;6.40;3.60;;;;;;;;;;5007451;28;20219;-87
2022/06/24 04:18:15;;;;;;;5.37;3.30;;;;;;;;;;5010255;28;20207;-85
2022/06/24 04:20:40;;;;;;;5.20;3.67;;;;;;;;;;5009544;28;20180;-88
2022/06/24 04:23:05;;;;;;;4.90;4.00;;;;;;;;;;5007318;28;20184;-84
2022/06/24 04:25:30;;;;;;;6.80;3.50;;;;;;;;;;5010694;28;20180;-86
2022/06/24 04:27:56;;;;;;;6.63;4.07;;;;;;;;;;5013248;28;20214;-85
2022/06/24 04:30:21;;;;;;;7.07;3.93;;;;;;;;;;5009812;28;20211;-86
2022/06/24 04:32:46;;;;;;;12.27;4.00;;;;;;;;;;5007965;28;20216;-86
2022/06/24 04:35:11;;;;;;;5.30;3.40;;;;;;;;;;5009585;28;20230;-86
2022/06/24 04:37:38;;;;;;;5.83;4.30;;;;;;;;;;5011597;28;20210;-88
2022/06/24 04:40:05;;;;;;;6.80;4.67;;;;;;;;;;5009913;28;20187;-88
2022/06/24 04:42:30;;;;;;;6.00;3.47;;;;;;;;;;5009791;28;20180;-88
2022/06/24 04:44:55;;;;;;;7.40;3.90;;;;;;;;;;5010180;28;20182;-89
2022/06/24 04:47:21;;;;;;;5.43;4.57;;;;;;;;;;5010869;28;20176;-88
2022/06/24 04:49:46;;;;;;;3.97;3.57;;;;;;;;;;5010376;28;20267;-89
2022/06/24 04:52:11;;;;;;;4.80;3.80;;;;;;;;;;5009984;28;20184;-87
2022/06/24 04:54:36;;;;;;;8.27;5.67;;;;;;;;;;5011270;28;20656;-89
2022/06/24 04:57:02;;;;;;;3.57;3.27;;;;;;;;;;5007383;28;20215;-88
2022/06/24 04:59:27;;;;;;;6.57;3.27;;;;;;;;;;5009258;28;20236;-88
2022/06/24 05:01:52;;;;;;;7.13;3.47;;;;;;;;;;5008018;28;20191;-84
2022/06/24 05:04:18;;;;;;;4.77;3.60;;;;;;;;;;5008018;28;20191;-83
2022/06/24 05:06:43;;;;;;;6.93;4.17;;;;;;;;;;5009581;28;20235;-83
2022/06/24 05:09:08;;;;;;;3.80;3.40;;;;;;;;;;5017949;28;20224;-84
2022/06/24 05:11:34;;;;;;;6.60;3.87;;;;;;;;;;5024410;28;20185;-83
2022/06/24 05:13:59;;;;;;;4.73;3.90;;;;;;;;;;5006420;28;20193;-85
2022/06/24 05:16:24;;;;;;;7.20;4.57;;;;;;;;;;5005618;28;20299;-82
2022/06/24 05:18:49;;;;;;;6.80;3.70;;;;;;;;;;5004239;28;20264;-83
2022/06/24 05:21:15;;;;;;;7.30;3.97;;;;;;;;;;5009720;28;20189;-83
2022/06/24 05:23:40;;;;;;;8.03;4.70;;;;;;;;;;5010838;28;20209;-84
2022/06/24 05:26:05;;;;;;;7.63;4.00;;;;;;;;;;5010075;28;20269;-83
2022/06/24 05:28:33;;;;;;;6.03;4.00;;;;;;;;;;5010643;28;20177;-83
2022/06/24 05:30:58;;;;;;;5.80;4.30;;;;;;;;;;5010534;28;20181;-84
2022/06/24 05:33:24;;;;;;;6.17;4.60;;;;;;;;;;5007220;28;20234;-84
2022/06/24 05:35:53;;;;;;;5.63;4.03;;;;;;;;;;5010218;28;20194;-83
2022/06/24 05:38:21;;;;;;;6.23;4.60;;;;;;;;;;5009072;28;20233;-83
2022/06/24 05:40:47;;;;;;;5.43;3.97;;;;;;;;;;5011349;28;20169;-83
2022/06/24 05:43:12;;;;;;;5.23;4.73;;;;;;;;;;5009804;28;20173;-84
2022/06/24 05:45:37;;;;;;;9.20;4.77;;;;;;;;;;5010207;28;20254;-84
2022/06/24 05:48:02;;;;;;;8.87;4.33;;;;;;;;;;5010142;28;20242;-84
2022/06/24 05:50:28;;;;;;;4.80;4.27;;;;;;;;;;5006674;28;20183;-84
2022/06/24 05:55:37;;;;;;;5.70;3.67;;;;;;;;;;5006579;28;20217;-84
2022/06/24 05:58:02;;;;;;;4.80;3.37;;;;;;;;;;5012439;28;20478;-85
2022/06/24 06:00:27;;;;;;;8.30;3.90;;;;;;;;;;5009586;28;20170;-84
2022/06/24 06:02:53;;;;;;;5.00;3.77;;;;;;;;;;5009876;28;20214;-85
2022/06/24 06:05:18;;;;;;;6.47;4.20;;;;;;;;;;5010876;28;20186;-85
2022/06/24 06:07:44;;;;;;;7.47;3.83;;;;;;;;;;5009266;28;20254;-84
2022/06/24 06:10:09;;;;;;;5.73;3.80;;;;;;;;;;5008264;28;20225;-85
2022/06/24 06:12:35;;;;;;;6.83;4.10;;;;;;;;;;5012293;28;20179;-84
2022/06/24 06:15:00;;;;;;;5.90;4.33;;;;;;;;;;5010235;28;20178;-85
2022/06/24 06:17:25;;;;;;;6.27;4.10;;;;;;;;;;5009676;28;20303;-85
2022/06/24 06:19:53;;;;;;;6.33;3.90;;;;;;;;;;5009008;28;20238;-85
2022/06/24 06:22:18;;;;;;;10.37;6.67;;;;;;;;;;5012853;28;20195;-85
2022/06/24 06:24:43;;;;;;;5.50;4.07;;;;;;;;;;5010073;28;20214;-85
2022/06/24 06:27:09;;;;;;;7.63;5.00;;;;;;;;;;5014048;28;20213;-85
2022/06/24 06:29:34;;;;;;;7.17;4.13;;;;;;;;;;5008320;28;20187;-85
2022/06/24 06:31:59;;;;;;;4.90;4.50;;;;;;;;;;5013651;28;20206;-85
2022/06/24 06:34:24;;;;;;;6.27;3.83;;;;;;;;;;5009894;28;20293;-85
2022/06/24 06:36:50;;;;;;;4.40;3.40;;;;;;;;;;5013704;28;20249;-85
2022/06/24 06:39:15;;;;;;;5.20;3.47;;;;;;;;;;5009532;28;20163;-85
2022/06/24 06:41:41;;;;;;;3.97;3.10;;;;;;;;;;5009176;28;20176;-84
2022/06/24 06:44:06;;;;;;;4.37;3.00;;;;;;;;;;5013914;28;20181;-85
2022/06/24 06:46:31;;;;;;;8.93;3.50;;;;;;;;;;5013325;28;20185;-85
2022/06/24 06:48:56;;;;;;;5.80;3.00;;;;;;;;;;5008671;28;20190;-84
2022/06/24 06:51:22;;;;;;;8.47;3.43;;;;;;;;;;5009257;28;20183;-85
2022/06/24 06:53:47;;;;;;;6.67;3.83;;;;;;;;;;5009247;28;20180;-85
2022/06/24 06:56:12;;;;;;;4.83;3.50;;;;;;;;;;5008418;28;20203;-86
2022/06/24 06:58:37;;;;;;;5.00;4.03;;;;;;;;;;5009927;28;20234;-85
2022/06/24 07:01:03;;;;;;;3.83;3.40;;;;;;;;;;5009254;28;20237;-87
2022/06/24 07:03:28;;;;;;;6.93;3.50;;;;;;;;;;5006468;28;20198;-85
2022/06/24 07:05:54;;;;;;;10.03;3.97;;;;;;;;;;5008539;28;20190;-85
2022/06/24 07:08:19;;;;;;;4.57;3.17;;;;;;;;;;5009360;28;20181;-85
2022/06/24 07:10:45;;;;;;;5.17;3.03;;;;;;;;;;5008884;28;20479;-85
2022/06/24 07:13:10;;;;;;;5.37;3.10;;;;;;;;;;5009549;28;20233;-85
2022/06/24 07:15:35;;;;;;;5.00;3.00;;;;;;;;;;5007784;28;20185;-85
2022/06/24 07:18:01;;;;;;;6.47;3.30;;;;;;;;;;5009310;28;20204;-86
2022/06/24 07:20:26;;;;;;;4.43;3.43;;;;;;;;;;5004799;28;20227;-85
2022/06/24 07:22:51;;;;;;;5.83;3.00;;;;;;;;;;5003971;28;20210;-86
2022/06/24 07:25:17;;;;;;;3.47;2.93;;;;;;;;;;5011719;28;20185;-86
2022/06/24 07:27:42;;;;;;;3.83;2.80;;;;;;;;;;5012377;28;20254;-85
2022/06/24 07:30:07;;;;;;;5.47;3.23;;;;;;;;;;5012262;28;20187;-86
2022/06/24 07:32:33;;;;;;;5.30;3.07;;;;;;;;;;5012650;28;20182;-86
2022/06/24 07:34:58;;;;;;;4.20;2.87;;;;;;;;;;5011975;28;20188;-86
2022/06/24 07:37:23;;;;;;;5.40;3.77;;;;;;;;;;5012010;28;20295;-85
2022/06/24 07:39:48;;;;;;;5.67;3.23;;;;;;;;;;5013116;28;20261;-85
2022/06/24 07:42:14;;;;;;;6.17;2.90;;;;;;;;;;5012672;28;20207;-86
2022/06/24 07:44:42;;;;;;;3.23;2.93;;;;;;;;;;5019426;28;20206;-86
2022/06/24 07:47:08;;;;;;;7.03;3.63;;;;;;;;;;5009812;28;20202;-85
2022/06/24 07:49:33;;;;;;;3.93;2.70;;;;;;;;;;5014423;28;20209;-86
2022/06/24 07:51:58;;;;;;;5.33;3.30;;;;;;;;;;5012326;28;20194;-86
2022/06/24 07:54:24;;;;;;;4.30;3.27;;;;;;;;;;5010629;28;20256;-86
2022/06/24 07:56:59;;;;;;;3.07;2.67;;;;;;;;;;5012304;28;20183;-85
2022/06/24 07:59:25;;;;;;;4.07;2.90;;;;;;;;;;5013177;28;20184;-85
2022/06/24 08:01:52;;;;;;;3.67;2.40;;;;;;;;;;5010813;28;20178;-85
2022/06/24 08:04:17;;;;;;;2.80;2.53;;;;;;;;;;5011380;28;20251;-85
2022/06/24 08:06:46;;;;;;;4.97;2.60;;;;;;;;;;5015358;28;20175;-86
2022/06/24 08:09:11;;;;;;;2.70;2.50;;;;;;;;;;5010377;28;20189;-85
2022/06/24 08:11:36;;;;;;;4.67;2.30;;;;;;;;;;5012038;28;20175;-85
2022/06/24 08:14:02;;;;;;;3.73;2.97;;;;;;;;;;5011498;28;20191;-85
2022/06/24 08:16:27;;;;;;;6.30;2.60;;;;;;;;;;5011161;28;20191;-86
2022/06/24 08:18:52;;;;;;;3.77;2.97;;;;;;;;;;5012040;28;20233;-86
2022/06/24 08:21:18;;;;;;;4.33;2.40;;;;;;;;;;5010895;28;20179;-85
2022/06/24 08:23:43;;;;;;;4.60;3.20;;;;;;;;;;5011278;28;20184;-85
2022/06/24 08:26:09;;;;;;;4.20;2.50;;;;;;;;;;5009250;28;20195;-84
2022/06/24 08:28:34;;;;;;;5.00;2.30;;;;;;;;;;5026908;28;20180;-85
2022/06/24 08:30:59;;;;;;;2.40;2.20;;;;;;;;;;5012298;28;20188;-85
2022/06/24 08:33:24;;;;;;;3.87;2.57;;;;;;;;;;5010431;28;20296;-85
2022/06/24 08:35:50;;;;;;;3.17;2.60;;;;;;;;;;5011089;28;20202;-85
2022/06/24 08:38:17;;;;;;;3.20;2.07;;;;;;;;;;5011827;28;20212;-85
2022/06/24 08:40:45;;;;;;;2.70;2.20;;;;;;;;;;5011145;28;20184;-85
2022/06/24 08:43:11;;;;;;;4.03;2.00;;;;;;;;;;5016907;28;20177;-85
2022/06/24 08:45:36;;;;;;;2.70;2.00;;;;;;;;;;5011169;28;20231;-86
2022/06/24 08:48:01;;;;;;;3.70;2.27;;;;;;;;;;5011264;28;20189;-85
2022/06/24 08:50:27;;;;;;;3.40;2.17;;;;;;;;;;5011413;28;20234;-85
2022/06/24 08:52:53;;;;;;;3.00;1.90;;;;;;;;;;5012525;28;20181;-85
2022/06/24 08:55:19;;;;;;;3.57;1.87;;;;;;;;;;5013048;28;20231;-85
2022/06/24 08:57:45;;;;;;;3.27;2.37;;;;;;;;;;5009890;28;20196;-85
2022/06/24 09:00:11;;;;;;;2.20;2.00;;;;;;;;;;5010798;28;20189;-84
2022/06/24 09:02:36;;;;;;;2.53;2.10;;;;;;;;;;5026812;28;20202;-85
2022/06/24 09:05:07;;;;;;;3.10;2.17;;;;;;;;;;5010464;28;20183;-84
2022/06/24 09:07:32;;;;;;;2.83;1.87;;;;;;;;;;5009254;28;20279;-85
2022/06/24 09:09:58;;;;;;;4.47;2.43;;;;;;;;;;5010411;28;20230;-84
2022/06/24 09:12:23;;;;;;;2.47;1.70;;;;;;;;;;5009993;28;20218;-85
2022/06/24 09:14:49;;;;;;;2.33;1.90;;;;;;;;;;5026352;28;20186;-85
2022/06/24 09:17:14;;;;;;;2.30;1.90;;;;;;;;;;5010477;28;20268;-85
2022/06/24 09:19:39;;;;;;;6.40;2.13;;;;;;;;;;5009252;28;20226;-85
2022/06/24 09:22:05;;;;;;;2.00;1.77;;;;;;;;;;5009625;28;20185;-85
2022/06/24 09:24:47;;;;;;;2.00;1.63;;;;;;;;;;5015100;28;20174;-85
2022/06/24 09:27:13;;;;;;;2.63;1.93;;;;;;;;;;5009784;28;20217;-86
2022/06/24 09:29:45;;;;;;;2.03;1.50;;;;;;;;;;5010613;28;20233;-85
2022/06/24 09:32:10;;;;;;;2.97;1.80;;;;;;;;;;5027710;28;20176;-85
2022/06/24 09:34:36;;;;;;;1.77;1.67;;;;;;;;;;5010058;28;20171;-84
2022/06/24 09:37:01;;;;;;;4.27;2.30;;;;;;;;;;5009924;28;20197;-84
2022/06/24 09:39:26;;;;;;;4.07;2.20;;;;;;;;;;5010601;28;20263;-84
2022/06/24 09:41:55;;;;;;;3.60;1.70;;;;;;;;;;5010487;28;20180;-84
2022/06/24 09:44:21;;;;;;;2.63;1.60;;;;;;;;;;5012294;28;20183;-84
2022/06/24 09:46:47;;;;;;;3.27;1.80;;;;;;;;;;5013129;28;20229;-84
2022/06/24 09:49:17;;;;;;;1.83;1.70;;;;;;;;;;5010343;28;20239;-84
2022/06/24 09:51:46;;;;;;;2.33;1.80;;;;;;;;;;5010321;28;20282;-85
2022/06/24 09:54:12;;;;;;;2.43;2.03;;;;;;;;;;5010010;28;20203;-84
2022/06/24 09:56:37;;;;;;;3.03;2.10;;;;;;;;;;5009722;28;20234;-85
2022/06/24 10:01:46;;;;;;;1.87;1.50;;;;;;;;;;5008882;28;20274;-85
2022/06/24 10:04:17;;;;;;;3.63;1.60;;;;;;;;;;5010157;28;20202;-84
2022/06/24 10:06:44;;;;;;;2.13;1.90;;;;;;;;;;5010157;28;20360;-84
2022/06/24 10:09:10;;;;;;;1.75;1.65;;;;;;;;;;5009115;28;20179;-84
2022/06/24 10:11:38;;;;;;;2.60;2.07;;;;;;;;;;5009508;28;20184;-84
2022/06/24 10:14:03;;;;;;;1.90;1.75;;;;;;;;;;5010095;28;20206;-83
2022/06/24 10:16:29;;;;;;;1.90;1.50;;;;;;;;;;5009577;28;20206;-85
2022/06/24 10:18:55;;;;;;;1.70;1.60;;;;;;;;;;5007451;28;20230;-84
2022/06/24 10:21:21;;;;;;;2.45;1.60;;;;;;;;;;5008533;28;20183;-84
2022/06/24 10:23:46;;;;;;;2.10;1.90;;;;;;;;;;5013435;28;20167;-84
2022/06/24 10:26:30;;;;;;;1.90;1.65;;;;;;;;;;5008067;28;20207;-84
2022/06/24 10:29:05;;;;;;;4.63;2.50;;;;;;;;;;5006300;28;20265;-84
2022/06/24 10:31:42;;;;;;;2.03;1.70;;;;;;;;;;5010777;28;20182;-84
2022/06/24 10:34:31;;;;;;;2.30;2.13;;;;;;;;;;5011680;28;20228;-84
2022/06/24 10:36:56;;;;;;;2.78;1.40;;;;;;;;;;5009306;28;20207;-84
2022/06/24 10:39:22;;;;;;;3.90;1.90;;;;;;;;;;5009865;28;20215;-84
2022/06/24 10:41:57;;;;;;;1.90;1.60;;;;;;;;;;5012822;28;20265;-85
2022/06/24 10:44:27;;;;;;;1.65;1.55;;;;;;;;;;5013770;28;20211;-85
2022/06/24 10:47:05;;;;;;;2.83;1.58;;;;;;;;;;5008670;28;20186;-84
2022/06/24 10:49:49;;;;;;;2.90;1.60;;;;;;;;;;5010022;28;20190;-85
2022/06/24 10:52:33;;;;;;;3.25;1.55;;;;;;;;;;5009196;28;20199;-84
2022/06/24 10:55:29;;;;;;;1.92;1.65;;;;;;;;;;5009704;28;20176;-84
2022/06/24 10:57:59;;;;;;;2.40;1.70;;;;;;;;;;5011847;28;20202;-84
2022/06/24 11:00:29;;;;;;;2.03;1.80;;;;;;;;;;5010550;28;20263;-84
2022/06/24 11:03:03;;;;;;;2.90;2.03;;;;;;;;;;5027900;28;20175;-84
2022/06/24 11:05:33;;;;;;;3.22;2.33;;;;;;;;;;5015012;28;20189;-84
2022/06/24 11:07:59;;;;;;;1.60;1.50;;;;;;;;;;5012617;28;20175;-84
2022/06/24 11:10:32;;;;;;;2.65;2.00;;;;;;;;;;5012027;28;20229;-84
2022/06/24 11:13:01;;;;;;;4.75;1.77;;;;;;;;;;5014924;28;20190;-84
2022/06/24 11:15:58;;;;;;;2.00;1.77;;;;;;;;;;5013898;28;20179;-84
2022/06/24 11:18:23;;;;;;;2.60;1.90;;;;;;;;;;4999969;28;20215;-83
2022/06/24 11:20:53;;;;;;;2.60;1.88;;;;;;;;;;5010297;28;20190;-83
2022/06/24 11:23:19;;;;;;;2.17;1.60;;;;;;;;;;5011377;28;20242;-82
2022/06/24 11:25:48;;;;;;;1.75;1.65;;;;;;;;;;5011863;28;20222;-83
2022/06/24 11:28:18;;;;;;;1.67;1.58;;;;;;;;;;5009669;28;20188;-83
2022/06/24 11:30:44;;;;;;;3.45;1.90;;;;;;;;;;5010779;28;20191;-83
2022/06/24 11:33:09;;;;;;;1.65;1.50;;;;;;;;;;5011111;28;20186;-83
2022/06/24 11:35:34;;;;;;;2.42;1.80;;;;;;;;;;5010244;28;20261;-83
2022/06/24 11:38:04;;;;;;;6.78;1.90;;;;;;;;;;5010337;28;20195;-82
2022/06/24 11:40:31;;;;;;;2.00;1.80;;;;;;;;;;5009762;28;20175;-83
2022/06/24 11:42:58;;;;;;;3.65;1.80;;;;;;;;;;5010959;28;20183;-82
2022/06/24 11:45:36;;;;;;;2.28;1.75;;;;;;;;;;5010087;28;20254;-82
2022/06/24 11:48:05;;;;;;;1.60;1.50;;;;;;;;;;5011760;28;20187;-82
2022/06/24 11:50:32;;;;;;;4.20;2.08;;;;;;;;;;5000503;28;20283;-83
2022/06/24 11:52:58;;;;;;;1.90;1.67;;;;;;;;;;5012464;28;20203;-82
2022/06/24 11:55:24;;;;;;;2.28;1.77;;;;;;;;;;5010721;28;20179;-82
2022/06/24 11:57:56;;;;;;;4.90;1.70;;;;;;;;;;5010728;28;20195;-83
2022/06/24 12:00:22;;;;;;;2.20;1.50;;;;;;;;;;5012051;28;20183;-83
2022/06/24 12:02:48;;;;;;;1.80;1.30;;;;;;;;;;5007975;28;20179;-82
2022/06/24 12:05:14;;;;;;;1.60;1.50;;;;;;;;;;5010229;28;20188;-82
2022/06/24 12:07:39;;;;;;;4.32;2.20;;;;;;;;;;5010098;28;20190;-82
2022/06/24 12:10:07;;;;;;;2.47;1.58;;;;;;;;;;5010008;28;20206;-82
2022/06/24 12:12:32;;;;;;;1.90;1.70;;;;;;;;;;5010497;28;20180;-82
2022/06/24 12:14:58;;;;;;;1.58;1.48;;;;;;;;;;5008216;28;20274;-82
2022/06/24 12:17:24;;;;;;;1.60;1.50;;;;;;;;;;5002419;28;20200;-82
2022/06/24 12:20:01;;;;;;;1.70;1.58;;;;;;;;;;5010511;28;20246;-82
2022/06/24 12:22:26;;;;;;;2.38;1.60;;;;;;;;;;5010942;28;20179;-82
2022/06/24 12:25:05;;;;;;;1.45;1.35;;;;;;;;;;5008798;28;20274;-82
2022/06/24 12:27:31;;;;;;;2.45;1.75;;;;;;;;;;5007285;28;20172;-82
2022/06/24 12:29:56;;;;;;;3.08;2.22;;;;;;;;;;5011571;28;20445;-82
2022/06/24 12:32:22;;;;;;;2.03;1.75;;;;;;;;;;5011601;28;20238;-82
2022/06/24 12:34:52;;;;;;;2.20;1.48;;;;;;;;;;5011663;28;20202;-82
2022/06/24 12:37:19;;;;;;;1.77;1.67;;;;;;;;;;5011342;28;20203;-82
2022/06/24 12:39:47;;;;;;;1.88;1.50;;;;;;;;;;5008441;28;20179;-82
2022/06/24 12:42:17;;;;;;;3.63;1.60;;;;;;;;;;5005512;28;20252;-82
2022/06/24 12:44:55;;;;;;;1.70;1.60;;;;;;;;;;5011407;28;20199;-82
2022/06/24 12:52:49;;;;;;;2.05;1.60;;;;;;;;;;5009141;28;20249;-82
2022/06/24 12:55:15;;;;;;;1.92;1.73;;;;;;;;;;5010443;28;20175;-82
2022/06/24 12:57:41;;;;;;;3.15;1.45;;;;;;;;;;5009223;28;20195;-82
2022/06/24 13:00:10;;;;;;;2.20;1.98;;;;;;;;;;5025759;28;20175;-82
2022/06/24 13:02:36;;;;;;;1.60;1.50;;;;;;;;;;5006607;28;20171;-82
2022/06/24 13:05:02;;;;;;;2.00;1.50;;;;;;;;;;5011074;28;20182;-82
2022/06/24 13:07:28;;;;;;;2.58;1.40;;;;;;;;;;5009982;28;20184;-82
2022/06/24 13:09:53;;;;;;;1.20;1.20;;;;;;;;;;5011017;28;20180;-82
2022/06/24 13:12:19;;;;;;;1.52;1.42;;;;;;;;;;5010624;28;20186;-82
2022/06/24 13:14:44;;;;;;;3.58;1.73;;;;;;;;;;5009241;28;20183;-82
2022/06/24 13:17:09;;;;;;;2.40;1.50;;;;;;;;;;5009904;28;20172;-82
2022/06/24 13:19:34;;;;;;;4.70;1.80;;;;;;;;;;5010926;28;20533;-83
2022/06/24 13:22:00;;;;;;;1.90;1.40;;;;;;;;;;5010396;28;20807;-82
2022/06/24 13:24:26;;;;;;;2.30;1.48;;;;;;;;;;5015051;28;20192;-82
2022/06/24 13:26:51;;;;;;;1.92;1.70;;;;;;;;;;5010014;28;20187;-83
2022/06/24 13:29:17;;;;;;;1.77;1.67;;;;;;;;;;5010546;28;20279;-82
2022/06/24 13:31:42;;;;;;;2.38;1.50;;;;;;;;;;5008615;28;20191;-83
2022/06/24 13:34:07;;;;;;;2.88;1.73;;;;;;;;;;5010703;28;20274;-83
2022/06/24 13:36:32;;;;;;;1.70;1.60;;;;;;;;;;5016785;28;20205;-83
2022/06/24 13:38:58;;;;;;;1.70;1.60;;;;;;;;;;5012581;28;20311;-83
2022/06/24 13:41:23;;;;;;;1.98;1.60;;;;;;;;;;5013928;28;20188;-83
2022/06/24 13:43:48;;;;;;;2.40;1.50;;;;;;;;;;5010684;28;20187;-82
2022/06/24 13:46:13;;;;;;;1.52;1.42;;;;;;;;;;5011545;28;20175;-82
2022/06/24 13:48:39;;;;;;;1.85;1.73;;;;;;;;;;5014302;28;20229;-83
2022/06/24 13:51:04;;;;;;;2.15;1.80;;;;;;;;;;5009052;28;20287;-83
2022/06/24 13:53:29;;;;;;;2.90;1.83;;;;;;;;;;5030218;28;20195;-83
2022/06/24 13:55:55;;;;;;;1.77;1.67;;;;;;;;;;5014893;28;20198;-83
2022/06/24 13:58:20;;;;;;;1.67;1.50;;;;;;;;;;5010447;28;20202;-84
2022/06/24 14:00:45;;;;;;;1.48;1.38;;;;;;;;;;5009666;28;20171;-83
2022/06/24 14:03:10;;;;;;;2.42;1.70;;;;;;;;;;5009413;28;20273;-83
2022/06/24 14:05:35;;;;;;;2.13;1.95;;;;;;;;;;5004563;28;20290;-83
2022/06/24 14:08:01;;;;;;;1.95;1.70;;;;;;;;;;5011669;28;20180;-83
2022/06/24 14:10:26;;;;;;;1.85;1.75;;;;;;;;;;5008519;28;20201;-83
2022/06/24 14:12:52;;;;;;;6.07;2.00;;;;;;;;;;5010578;28;20187;-82
2022/06/24 14:15:17;;;;;;;2.65;1.90;;;;;;;;;;5009868;28;20262;-83
2022/06/24 14:17:43;;;;;;;1.92;1.77;;;;;;;;;;5009442;28;20206;-83
2022/06/24 14:20:09;;;;;;;3.42;2.00;;;;;;;;;;5007947;28;20234;-83
2022/06/24 14:22:34;;;;;;;3.03;1.80;;;;;;;;;;5007918;28;20194;-82
2022/06/24 14:25:00;;;;;;;3.33;2.20;;;;;;;;;;5010123;28;20211;-83
2022/06/24 14:27:25;;;;;;;2.20;2.00;;;;;;;;;;5008999;28;20191;-83
2022/06/24 14:29:50;;;;;;;2.20;2.00;;;;;;;;;;5013406;28;20186;-83
2022/06/24 14:32:16;;;;;;;2.17;1.80;;;;;;;;;;5010534;28;20171;-82
2022/06/24 14:34:41;;;;;;;2.45;2.17;;;;;;;;;;5010403;28;20181;-78
2022/06/24 14:40:10;;;;;;;2.67;2.17;;;;;;;;;;5013177;28;20206;-80
2022/06/24 14:42:35;;;;;;;3.37;2.40;;;;;;;;;;5011943;28;20355;-80
2022/06/24 14:45:01;;;;;;;3.72;2.20;;;;;;;;;;5012022;28;20266;-80
2022/06/24 14:47:26;;;;;;;22.90;6.30;;;;;;;;;;5017538;28;20193;-80
2022/06/24 14:49:51;;;;;;;4.32;3.50;;;;;;;;;;5011307;28;20182;-81
2022/06/24 14:52:16;;;;;;;4.00;2.33;;;;;;;;;;5010710;28;20202;-80
2022/06/24 14:54:41;;;;;;;4.10;2.05;;;;;;;;;;5015325;28;20183;-80
2022/06/24 14:57:08;;;;;;;8.02;3.13;;;;;;;;;;5010259;28;20198;-81